sensor_id;sensor_type;location;lat;lon;timestamp;temperature;humidity
17954;DHT22;9102;53.548;9.926;2022-11-30T00:01:51;5.50;99.90
17954;DHT22;9102;53.548;9.926;2022-11-30T00:04:19;5.60;99.90
17954;DHT22;9102;53.548;9.926;2022-11-30T00:06:46;5.50;99.90
17954;DHT22;9102;53.548;9.926;2022-11-30T00:09:13;5.50;99.90
17954;DHT22;9102;53.548;9.926;2022-11-30T00:11:40;5.50;99.90
17954;DHT22;9102;53.548;9.926;2022-11-30T00:14:06;5.50;99.90
17954;DHT22;9102;53.548;9.926;2022-11-30T00:16:33;5.40;99.90
17954;DHT22;9102;53.548;9.926;2022-11-30T00:19:01;5.40;99.90
17954;DHT22;9102;53.548;9.926;2022-11-30T00:21:29;5.40;99.90
17954;DHT22;9102;53.548;9.926;2022-11-30T00:23:56;5.40;99.90
17954;DHT22;9102;53.548;9.926;2022-11-30T00:26:22;5.40;99.90
17954;DHT22;9102;53.548;9.926;2022-11-30T00:28:49;5.50;99.90
17954;DHT22;9102;53.548;9.926;2022-11-30T00:31:17;5.50;99.90
17954;DHT22;9102;53.548;9.926;2022-11-30T00:33:44;5.50;99.90
17954;DHT22;9102;53.548;9.926;2022-11-30T00:36:12;5.50;99.90
17954;DHT22;9102;53.548;9.926;2022-11-30T00:38:41;5.50;99.90
17954;DHT22;9102;53.548;9.926;2022-11-30T00:41:08;5.50;99.90
17954;DHT22;9102;53.548;9.926;2022-11-30T00:43:35;5.40;99.90
17954;DHT22;9102;53.548;9.926;2022-11-30T00:46:02;5.40;99.90
17954;DHT22;9102;53.548;9.926;2022-11-30T00:48:29;5.40;99.90
17954;DHT22;9102;53.548;9.926;2022-11-30T00:50:56;5.40;99.90
17954;DHT22;9102;53.548;9.926;2022-11-30T00:53:23;5.30;99.90
17954;DHT22;9102;53.548;9.926;2022-11-30T00:55:51;5.40;99.90
17954;DHT22;9102;53.548;9.926;2022-11-30T00:58:18;5.40;99.90
17954;DHT22;9102;53.548;9.926;2022-11-30T01:00:45;5.40;99.90
17954;DHT22;9102;53.548;9.926;2022-11-30T01:03:12;5.50;99.90
17954;DHT22;9102;53.548;9.926;2022-11-30T01:05:39;5.40;99.90
17954;DHT22;9102;53.548;9.926;2022-11-30T01:08:09;5.40;99.90
17954;DHT22;9102;53.548;9.926;2022-11-30T01:10:37;5.30;99.90
17954;DHT22;9102;53.548;9.926;2022-11-30T01:13:06;5.40;99.90
17954;DHT22;9102;53.548;9.926;2022-11-30T01:15:35;5.40;99.90
17954;DHT22;9102;53.548;9.926;2022-11-30T01:18:03;5.40;99.90
17954;DHT22;9102;53.548;9.926;2022-11-30T01:20:30;5.40;99.90
17954;DHT22;9102;53.548;9.926;2022-11-30T01:22:57;5.40;99.90
17954;DHT22;9102;53.548;9.926;2022-11-30T01:25:24;5.30;99.90
17954;DHT22;9102;53.548;9.926;2022-11-30T01:27:51;5.30;99.90
17954;DHT22;9102;53.548;9.926;2022-11-30T01:30:19;5.30;99.90
17954;DHT22;9102;53.548;9.926;2022-11-30T01:32:46;5.30;99.90
17954;DHT22;9102;53.548;9.926;2022-11-30T01:35:13;5.30;99.90
17954;DHT22;9102;53.548;9.926;2022-11-30T01:37:39;5.30;99.90
17954;DHT22;9102;53.548;9.926;2022-11-30T01:40:07;5.40;99.90
17954;DHT22;9102;53.548;9.926;2022-11-30T01:42:35;5.40;99.90
17954;DHT22;9102;53.548;9.926;2022-11-30T01:45:04;5.30;99.90
17954;DHT22;9102;53.548;9.926;2022-11-30T01:47:35;5.30;99.90
17954;DHT22;9102;53.548;9.926;2022-11-30T01:50:07;5.30;99.90
17954;DHT22;9102;53.548;9.926;2022-11-30T01:52:36;5.30;99.90
17954;DHT22;9102;53.548;9.926;2022-11-30T01:55:11;5.40;99.90
17954;DHT22;9102;53.548;9.926;2022-11-30T01:57:42;5.40;99.90
17954;DHT22;9102;53.548;9.926;2022-11-30T02:00:13;5.40;99.90
17954;DHT22;9102;53.548;9.926;2022-11-30T02:02:49;5.50;99.90
17954;DHT22;9102;53.548;9.926;2022-11-30T02:05:17;5.50;99.90
17954;DHT22;9102;53.548;9.926;2022-11-30T02:07:45;5.50;99.90
17954;DHT22;9102;53.548;9.926;2022-11-30T02:10:13;5.50;99.90
17954;DHT22;9102;53.548;9.926;2022-11-30T02:12:51;5.50;99.90
17954;DHT22;9102;53.548;9.926;2022-11-30T02:15:27;5.50;99.90
17954;DHT22;9102;53.548;9.926;2022-11-30T02:18:06;5.50;99.90
17954;DHT22;9102;53.548;9.926;2022-11-30T02:20:49;5.30;99.90
17954;DHT22;9102;53.548;9.926;2022-11-30T02:23:41;5.40;99.90
17954;DHT22;9102;53.548;9.926;2022-11-30T02:26:27;5.40;99.90
17954;DHT22;9102;53.548;9.926;2022-11-30T02:29:05;5.40;99.90
17954;DHT22;9102;53.548;9.926;2022-11-30T02:31:39;5.40;99.90
17954;DHT22;9102;53.548;9.926;2022-11-30T02:34:09;5.40;99.90
17954;DHT22;9102;53.548;9.926;2022-11-30T02:36:39;5.40;99.90
17954;DHT22;9102;53.548;9.926;2022-11-30T02:39:06;5.40;99.90
17954;DHT22;9102;53.548;9.926;2022-11-30T02:41:36;5.40;99.90
17954;DHT22;9102;53.548;9.926;2022-11-30T02:44:06;5.50;99.90
17954;DHT22;9102;53.548;9.926;2022-11-30T02:46:43;5.40;99.90
17954;DHT22;9102;53.548;9.926;2022-11-30T02:49:16;5.40;99.90
17954;DHT22;9102;53.548;9.926;2022-11-30T02:51:45;5.40;99.90
17954;DHT22;9102;53.548;9.926;2022-11-30T02:54:13;5.40;99.90
17954;DHT22;9102;53.548;9.926;2022-11-30T02:56:40;5.50;99.90
17954;DHT22;9102;53.548;9.926;2022-11-30T02:59:08;5.50;99.90
17954;DHT22;9102;53.548;9.926;2022-11-30T03:01:35;5.40;99.90
17954;DHT22;9102;53.548;9.926;2022-11-30T03:04:03;5.40;99.90
17954;DHT22;9102;53.548;9.926;2022-11-30T03:06:30;5.40;99.90
17954;DHT22;9102;53.548;9.926;2022-11-30T03:08:56;5.40;99.90
17954;DHT22;9102;53.548;9.926;2022-11-30T03:11:23;5.50;99.90
17954;DHT22;9102;53.548;9.926;2022-11-30T03:17:14;5.40;99.90
17954;DHT22;9102;53.548;9.926;2022-11-30T03:19:41;5.50;99.90
17954;DHT22;9102;53.548;9.926;2022-11-30T03:22:08;5.50;99.90
17954;DHT22;9102;53.548;9.926;2022-11-30T03:24:35;5.50;99.90
17954;DHT22;9102;53.548;9.926;2022-11-30T03:27:01;5.50;99.90
17954;DHT22;9102;53.548;9.926;2022-11-30T03:29:28;5.50;99.90
17954;DHT22;9102;53.548;9.926;2022-11-30T03:31:55;5.60;99.90
17954;DHT22;9102;53.548;9.926;2022-11-30T03:34:23;5.50;99.90
17954;DHT22;9102;53.548;9.926;2022-11-30T03:36:52;5.50;99.90
17954;DHT22;9102;53.548;9.926;2022-11-30T03:39:18;5.50;99.90
17954;DHT22;9102;53.548;9.926;2022-11-30T03:41:45;5.50;99.90
17954;DHT22;9102;53.548;9.926;2022-11-30T03:44:12;5.40;99.90
17954;DHT22;9102;53.548;9.926;2022-11-30T03:46:39;5.40;99.90
17954;DHT22;9102;53.548;9.926;2022-11-30T03:49:06;5.40;99.90
17954;DHT22;9102;53.548;9.926;2022-11-30T03:51:34;5.40;99.90
17954;DHT22;9102;53.548;9.926;2022-11-30T03:54:01;5.40;99.90
17954;DHT22;9102;53.548;9.926;2022-11-30T03:56:28;5.40;99.90
17954;DHT22;9102;53.548;9.926;2022-11-30T03:58:55;5.40;99.90
17954;DHT22;9102;53.548;9.926;2022-11-30T04:01:22;5.40;99.90
17954;DHT22;9102;53.548;9.926;2022-11-30T04:03:50;5.50;99.90
17954;DHT22;9102;53.548;9.926;2022-11-30T04:06:17;5.50;99.90
17954;DHT22;9102;53.548;9.926;2022-11-30T04:08:46;5.50;99.90
17954;DHT22;9102;53.548;9.926;2022-11-30T04:11:14;5.50;99.90
17954;DHT22;9102;53.548;9.926;2022-11-30T04:13:41;5.40;99.90
17954;DHT22;9102;53.548;9.926;2022-11-30T04:16:08;5.40;99.90
17954;DHT22;9102;53.548;9.926;2022-11-30T04:18:36;5.40;99.90
17954;DHT22;9102;53.548;9.926;2022-11-30T04:21:04;5.40;99.90
17954;DHT22;9102;53.548;9.926;2022-11-30T04:23:33;5.40;99.90
17954;DHT22;9102;53.548;9.926;2022-11-30T04:26:03;5.50;99.90
17954;DHT22;9102;53.548;9.926;2022-11-30T04:28:30;5.50;99.90
17954;DHT22;9102;53.548;9.926;2022-11-30T04:30:57;5.50;99.90
17954;DHT22;9102;53.548;9.926;2022-11-30T04:33:26;5.50;99.90
17954;DHT22;9102;53.548;9.926;2022-11-30T04:35:54;5.50;99.90
17954;DHT22;9102;53.548;9.926;2022-11-30T04:38:21;5.60;99.90
17954;DHT22;9102;53.548;9.926;2022-11-30T04:40:48;5.60;99.90
17954;DHT22;9102;53.548;9.926;2022-11-30T04:43:20;5.50;99.90
17954;DHT22;9102;53.548;9.926;2022-11-30T04:45:48;5.50;99.90
17954;DHT22;9102;53.548;9.926;2022-11-30T04:48:15;5.50;99.90
17954;DHT22;9102;53.548;9.926;2022-11-30T04:50:43;5.50;99.90
17954;DHT22;9102;53.548;9.926;2022-11-30T04:53:10;5.60;99.90
17954;DHT22;9102;53.548;9.926;2022-11-30T04:55:37;5.50;99.90
17954;DHT22;9102;53.548;9.926;2022-11-30T04:58:05;5.50;99.90
17954;DHT22;9102;53.548;9.926;2022-11-30T05:00:33;5.50;99.90
17954;DHT22;9102;53.548;9.926;2022-11-30T05:03:01;5.50;99.90
17954;DHT22;9102;53.548;9.926;2022-11-30T05:05:27;5.50;99.90
17954;DHT22;9102;53.548;9.926;2022-11-30T05:07:55;5.50;99.90
17954;DHT22;9102;53.548;9.926;2022-11-30T05:10:23;5.50;99.90
17954;DHT22;9102;53.548;9.926;2022-11-30T05:12:50;5.50;99.90
17954;DHT22;9102;53.548;9.926;2022-11-30T05:15:17;5.50;99.90
17954;DHT22;9102;53.548;9.926;2022-11-30T05:17:45;5.50;99.90
17954;DHT22;9102;53.548;9.926;2022-11-30T05:20:12;5.50;99.90
17954;DHT22;9102;53.548;9.926;2022-11-30T05:22:39;5.50;99.90
17954;DHT22;9102;53.548;9.926;2022-11-30T05:25:07;5.50;99.90
17954;DHT22;9102;53.548;9.926;2022-11-30T05:27:34;5.40;99.90
17954;DHT22;9102;53.548;9.926;2022-11-30T05:30:02;5.50;99.90
17954;DHT22;9102;53.548;9.926;2022-11-30T05:32:28;5.40;99.90
17954;DHT22;9102;53.548;9.926;2022-11-30T05:34:57;5.50;99.90
17954;DHT22;9102;53.548;9.926;2022-11-30T05:37:23;5.50;99.90
17954;DHT22;9102;53.548;9.926;2022-11-30T05:39:50;5.60;99.90
17954;DHT22;9102;53.548;9.926;2022-11-30T05:42:17;5.60;99.90
17954;DHT22;9102;53.548;9.926;2022-11-30T05:44:44;5.60;99.90
17954;DHT22;9102;53.548;9.926;2022-11-30T05:47:12;5.50;99.90
17954;DHT22;9102;53.548;9.926;2022-11-30T05:49:39;5.50;99.90
17954;DHT22;9102;53.548;9.926;2022-11-30T05:52:07;5.50;99.90
17954;DHT22;9102;53.548;9.926;2022-11-30T05:54:34;5.50;99.90
17954;DHT22;9102;53.548;9.926;2022-11-30T05:57:01;5.60;99.90
17954;DHT22;9102;53.548;9.926;2022-11-30T05:59:27;5.50;99.90
17954;DHT22;9102;53.548;9.926;2022-11-30T06:01:54;5.50;99.90
17954;DHT22;9102;53.548;9.926;2022-11-30T06:04:21;5.50;99.90
17954;DHT22;9102;53.548;9.926;2022-11-30T06:06:48;5.50;99.90
17954;DHT22;9102;53.548;9.926;2022-11-30T06:09:18;5.60;99.90
17954;DHT22;9102;53.548;9.926;2022-11-30T06:11:44;5.80;99.90
17954;DHT22;9102;53.548;9.926;2022-11-30T06:14:11;5.60;99.90
17954;DHT22;9102;53.548;9.926;2022-11-30T06:16:38;5.50;99.90
17954;DHT22;9102;53.548;9.926;2022-11-30T06:19:05;5.50;99.90
17954;DHT22;9102;53.548;9.926;2022-11-30T06:21:32;5.60;99.90
17954;DHT22;9102;53.548;9.926;2022-11-30T06:23:59;5.60;99.90
17954;DHT22;9102;53.548;9.926;2022-11-30T06:26:27;5.60;99.90
17954;DHT22;9102;53.548;9.926;2022-11-30T06:28:54;5.70;99.90
17954;DHT22;9102;53.548;9.926;2022-11-30T06:31:20;5.70;99.90
17954;DHT22;9102;53.548;9.926;2022-11-30T06:33:47;5.70;99.90
17954;DHT22;9102;53.548;9.926;2022-11-30T06:36:19;5.70;99.90
17954;DHT22;9102;53.548;9.926;2022-11-30T06:38:46;5.70;99.90
17954;DHT22;9102;53.548;9.926;2022-11-30T06:41:13;5.60;99.90
17954;DHT22;9102;53.548;9.926;2022-11-30T06:43:41;5.70;99.90
17954;DHT22;9102;53.548;9.926;2022-11-30T06:46:08;5.60;99.90
17954;DHT22;9102;53.548;9.926;2022-11-30T06:48:35;5.70;99.90
17954;DHT22;9102;53.548;9.926;2022-11-30T06:51:04;5.70;99.90
17954;DHT22;9102;53.548;9.926;2022-11-30T06:53:31;5.70;99.90
17954;DHT22;9102;53.548;9.926;2022-11-30T06:55:58;5.70;99.90
17954;DHT22;9102;53.548;9.926;2022-11-30T06:58:28;5.70;99.90
17954;DHT22;9102;53.548;9.926;2022-11-30T07:00:56;5.80;99.90
17954;DHT22;9102;53.548;9.926;2022-11-30T07:03:23;5.80;99.90
17954;DHT22;9102;53.548;9.926;2022-11-30T07:05:50;5.80;99.90
17954;DHT22;9102;53.548;9.926;2022-11-30T07:08:18;5.80;99.90
17954;DHT22;9102;53.548;9.926;2022-11-30T07:10:46;5.90;99.90
17954;DHT22;9102;53.548;9.926;2022-11-30T07:13:14;5.90;99.90
17954;DHT22;9102;53.548;9.926;2022-11-30T07:15:42;5.90;99.90
17954;DHT22;9102;53.548;9.926;2022-11-30T07:18:10;5.90;99.90
17954;DHT22;9102;53.548;9.926;2022-11-30T07:20:38;5.90;99.90
17954;DHT22;9102;53.548;9.926;2022-11-30T07:23:05;5.90;99.90
17954;DHT22;9102;53.548;9.926;2022-11-30T07:25:46;5.90;99.90
17954;DHT22;9102;53.548;9.926;2022-11-30T07:28:32;5.90;99.90
17954;DHT22;9102;53.548;9.926;2022-11-30T07:30:59;5.80;99.90
17954;DHT22;9102;53.548;9.926;2022-11-30T07:33:27;5.80;99.90
17954;DHT22;9102;53.548;9.926;2022-11-30T07:35:54;5.90;99.90
17954;DHT22;9102;53.548;9.926;2022-11-30T07:38:21;5.90;99.90
17954;DHT22;9102;53.548;9.926;2022-11-30T07:40:47;5.90;99.90
17954;DHT22;9102;53.548;9.926;2022-11-30T07:43:14;5.90;99.90
17954;DHT22;9102;53.548;9.926;2022-11-30T07:45:42;5.80;99.90
17954;DHT22;9102;53.548;9.926;2022-11-30T07:48:09;5.80;99.90
17954;DHT22;9102;53.548;9.926;2022-11-30T07:50:37;5.70;99.90
17954;DHT22;9102;53.548;9.926;2022-11-30T07:53:04;5.80;99.90
17954;DHT22;9102;53.548;9.926;2022-11-30T07:55:30;5.80;99.90
17954;DHT22;9102;53.548;9.926;2022-11-30T07:57:57;5.90;99.90
17954;DHT22;9102;53.548;9.926;2022-11-30T08:00:24;5.90;99.90
17954;DHT22;9102;53.548;9.926;2022-11-30T08:02:51;5.90;99.90
17954;DHT22;9102;53.548;9.926;2022-11-30T08:05:18;5.90;99.90
17954;DHT22;9102;53.548;9.926;2022-11-30T08:07:49;5.90;99.90
17954;DHT22;9102;53.548;9.926;2022-11-30T08:10:16;6.00;99.90
17954;DHT22;9102;53.548;9.926;2022-11-30T08:12:43;6.00;99.90
17954;DHT22;9102;53.548;9.926;2022-11-30T08:15:10;5.90;99.90
17954;DHT22;9102;53.548;9.926;2022-11-30T08:17:37;5.90;99.90
17954;DHT22;9102;53.548;9.926;2022-11-30T08:20:05;5.90;99.90
17954;DHT22;9102;53.548;9.926;2022-11-30T08:22:32;5.70;99.90
17954;DHT22;9102;53.548;9.926;2022-11-30T08:25:01;5.80;99.90
17954;DHT22;9102;53.548;9.926;2022-11-30T08:27:27;5.70;99.90
17954;DHT22;9102;53.548;9.926;2022-11-30T08:29:54;5.70;99.90
17954;DHT22;9102;53.548;9.926;2022-11-30T08:32:21;5.80;99.90
17954;DHT22;9102;53.548;9.926;2022-11-30T08:34:48;5.80;99.90
17954;DHT22;9102;53.548;9.926;2022-11-30T08:37:15;5.80;99.90
17954;DHT22;9102;53.548;9.926;2022-11-30T08:39:44;6.00;99.90
17954;DHT22;9102;53.548;9.926;2022-11-30T08:42:12;5.90;99.90
17954;DHT22;9102;53.548;9.926;2022-11-30T08:44:39;5.90;99.90
17954;DHT22;9102;53.548;9.926;2022-11-30T08:47:09;6.00;99.90
17954;DHT22;9102;53.548;9.926;2022-11-30T08:49:41;5.80;99.90
17954;DHT22;9102;53.548;9.926;2022-11-30T08:52:10;5.70;99.90
17954;DHT22;9102;53.548;9.926;2022-11-30T08:54:40;5.80;99.90
17954;DHT22;9102;53.548;9.926;2022-11-30T08:57:09;5.80;99.90
17954;DHT22;9102;53.548;9.926;2022-11-30T08:59:38;5.80;99.90
17954;DHT22;9102;53.548;9.926;2022-11-30T09:02:08;5.80;99.90
17954;DHT22;9102;53.548;9.926;2022-11-30T09:04:35;5.70;99.90
17954;DHT22;9102;53.548;9.926;2022-11-30T09:07:02;5.80;99.90
17954;DHT22;9102;53.548;9.926;2022-11-30T09:09:28;5.70;99.90
17954;DHT22;9102;53.548;9.926;2022-11-30T09:11:55;5.80;99.90
17954;DHT22;9102;53.548;9.926;2022-11-30T09:14:22;5.80;99.90
17954;DHT22;9102;53.548;9.926;2022-11-30T09:16:51;5.80;99.90
17954;DHT22;9102;53.548;9.926;2022-11-30T09:19:18;5.90;99.90
17954;DHT22;9102;53.548;9.926;2022-11-30T09:21:45;5.90;99.90
17954;DHT22;9102;53.548;9.926;2022-11-30T09:24:12;6.00;99.90
17954;DHT22;9102;53.548;9.926;2022-11-30T09:26:39;5.90;99.90
17954;DHT22;9102;53.548;9.926;2022-11-30T09:29:06;5.90;99.90
17954;DHT22;9102;53.548;9.926;2022-11-30T09:31:33;5.90;99.90
17954;DHT22;9102;53.548;9.926;2022-11-30T09:34:01;6.00;99.90
17954;DHT22;9102;53.548;9.926;2022-11-30T09:36:28;6.00;99.90
17954;DHT22;9102;53.548;9.926;2022-11-30T09:38:57;6.00;99.90
17954;DHT22;9102;53.548;9.926;2022-11-30T09:41:50;6.10;99.90
17954;DHT22;9102;53.548;9.926;2022-11-30T09:44:22;6.10;99.90
17954;DHT22;9102;53.548;9.926;2022-11-30T09:46:56;6.10;99.90
17954;DHT22;9102;53.548;9.926;2022-11-30T09:49:29;6.00;99.90
17954;DHT22;9102;53.548;9.926;2022-11-30T09:52:00;5.90;99.90
17954;DHT22;9102;53.548;9.926;2022-11-30T09:54:33;6.00;99.90
17954;DHT22;9102;53.548;9.926;2022-11-30T09:57:21;6.10;99.90
17954;DHT22;9102;53.548;9.926;2022-11-30T09:59:54;5.90;99.90
17954;DHT22;9102;53.548;9.926;2022-11-30T10:02:25;5.90;99.90
17954;DHT22;9102;53.548;9.926;2022-11-30T10:04:55;5.90;99.90
17954;DHT22;9102;53.548;9.926;2022-11-30T10:10:50;5.90;99.90
17954;DHT22;9102;53.548;9.926;2022-11-30T10:13:33;5.90;99.90
17954;DHT22;9102;53.548;9.926;2022-11-30T10:16:13;6.00;99.90
17954;DHT22;9102;53.548;9.926;2022-11-30T10:18:50;5.90;99.90
17954;DHT22;9102;53.548;9.926;2022-11-30T10:21:31;5.80;99.90
17954;DHT22;9102;53.548;9.926;2022-11-30T10:24:17;6.00;99.90
17954;DHT22;9102;53.548;9.926;2022-11-30T10:26:52;6.00;99.90
17954;DHT22;9102;53.548;9.926;2022-11-30T10:29:25;5.90;99.90
17954;DHT22;9102;53.548;9.926;2022-11-30T10:31:56;6.00;99.90
17954;DHT22;9102;53.548;9.926;2022-11-30T10:34:26;6.10;99.90
17954;DHT22;9102;53.548;9.926;2022-11-30T10:37:00;6.00;99.90
17954;DHT22;9102;53.548;9.926;2022-11-30T10:39:33;6.10;99.90
17954;DHT22;9102;53.548;9.926;2022-11-30T10:42:06;6.00;99.90
17954;DHT22;9102;53.548;9.926;2022-11-30T10:44:39;6.00;99.90
17954;DHT22;9102;53.548;9.926;2022-11-30T10:47:12;6.10;99.90
17954;DHT22;9102;53.548;9.926;2022-11-30T10:49:44;6.00;99.90
17954;DHT22;9102;53.548;9.926;2022-11-30T10:52:16;6.00;99.90
17954;DHT22;9102;53.548;9.926;2022-11-30T10:54:44;6.00;99.90
17954;DHT22;9102;53.548;9.926;2022-11-30T10:57:12;6.00;99.90
17954;DHT22;9102;53.548;9.926;2022-11-30T10:59:42;6.00;99.90
17954;DHT22;9102;53.548;9.926;2022-11-30T11:02:35;5.90;99.90
17954;DHT22;9102;53.548;9.926;2022-11-30T11:05:19;5.90;99.90
17954;DHT22;9102;53.548;9.926;2022-11-30T11:07:53;5.90;99.90
17954;DHT22;9102;53.548;9.926;2022-11-30T11:10:24;6.10;99.90
17954;DHT22;9102;53.548;9.926;2022-11-30T11:12:53;6.00;99.90
17954;DHT22;9102;53.548;9.926;2022-11-30T11:15:22;6.00;99.90
17954;DHT22;9102;53.548;9.926;2022-11-30T11:17:50;6.00;99.90
17954;DHT22;9102;53.548;9.926;2022-11-30T11:20:28;6.10;99.90
17954;DHT22;9102;53.548;9.926;2022-11-30T11:22:56;6.20;99.90
17954;DHT22;9102;53.548;9.926;2022-11-30T11:25:27;6.20;99.90
17954;DHT22;9102;53.548;9.926;2022-11-30T11:28:02;6.20;99.90
17954;DHT22;9102;53.548;9.926;2022-11-30T11:30:30;6.10;99.90
17954;DHT22;9102;53.548;9.926;2022-11-30T11:32:59;6.20;99.90
17954;DHT22;9102;53.548;9.926;2022-11-30T11:35:38;6.10;99.90
17954;DHT22;9102;53.548;9.926;2022-11-30T11:38:19;6.10;99.90
17954;DHT22;9102;53.548;9.926;2022-11-30T11:40:58;6.10;99.90
17954;DHT22;9102;53.548;9.926;2022-11-30T11:43:27;6.10;99.90
17954;DHT22;9102;53.548;9.926;2022-11-30T11:45:56;6.00;99.90
17954;DHT22;9102;53.548;9.926;2022-11-30T11:48:34;6.00;99.90
17954;DHT22;9102;53.548;9.926;2022-11-30T11:51:04;6.00;99.90
17954;DHT22;9102;53.548;9.926;2022-11-30T11:53:45;6.00;99.90
17954;DHT22;9102;53.548;9.926;2022-11-30T11:56:16;6.10;99.90
17954;DHT22;9102;53.548;9.926;2022-11-30T11:58:49;6.10;99.90
17954;DHT22;9102;53.548;9.926;2022-11-30T12:01:30;6.10;99.90
17954;DHT22;9102;53.548;9.926;2022-11-30T12:04:09;6.00;99.90
17954;DHT22;9102;53.548;9.926;2022-11-30T12:06:39;5.90;99.90
17954;DHT22;9102;53.548;9.926;2022-11-30T12:09:13;5.90;99.90
17954;DHT22;9102;53.548;9.926;2022-11-30T12:11:43;5.90;99.90
17954;DHT22;9102;53.548;9.926;2022-11-30T12:14:12;5.90;99.90
17954;DHT22;9102;53.548;9.926;2022-11-30T12:16:55;6.00;99.90
17954;DHT22;9102;53.548;9.926;2022-11-30T12:19:30;6.00;99.90
17954;DHT22;9102;53.548;9.926;2022-11-30T12:22:06;6.00;99.90
17954;DHT22;9102;53.548;9.926;2022-11-30T12:24:57;5.90;99.90
17954;DHT22;9102;53.548;9.926;2022-11-30T12:30:59;6.00;99.90
17954;DHT22;9102;53.548;9.926;2022-11-30T12:33:47;6.10;99.90
17954;DHT22;9102;53.548;9.926;2022-11-30T12:36:23;6.10;99.90
17954;DHT22;9102;53.548;9.926;2022-11-30T12:38:57;6.00;99.90
17954;DHT22;9102;53.548;9.926;2022-11-30T12:41:40;6.00;99.90
17954;DHT22;9102;53.548;9.926;2022-11-30T12:44:23;6.00;99.90
17954;DHT22;9102;53.548;9.926;2022-11-30T12:46:59;6.00;99.90
17954;DHT22;9102;53.548;9.926;2022-11-30T12:49:42;6.00;99.90
17954;DHT22;9102;53.548;9.926;2022-11-30T12:52:23;6.00;99.90
17954;DHT22;9102;53.548;9.926;2022-11-30T12:54:58;6.00;99.90
17954;DHT22;9102;53.548;9.926;2022-11-30T12:57:31;6.00;99.90
17954;DHT22;9102;53.548;9.926;2022-11-30T13:00:04;5.90;99.90
17954;DHT22;9102;53.548;9.926;2022-11-30T13:02:58;5.90;99.90
17954;DHT22;9102;53.548;9.926;2022-11-30T13:05:33;5.90;99.90
17954;DHT22;9102;53.548;9.926;2022-11-30T13:08:06;5.80;99.90
17954;DHT22;9102;53.548;9.926;2022-11-30T13:10:41;5.70;99.90
17954;DHT22;9102;53.548;9.926;2022-11-30T13:13:15;5.70;99.90
17954;DHT22;9102;53.548;9.926;2022-11-30T13:15:43;5.70;99.90
17954;DHT22;9102;53.548;9.926;2022-11-30T13:18:16;5.60;99.90
17954;DHT22;9102;53.548;9.926;2022-11-30T13:20:47;5.60;99.90
17954;DHT22;9102;53.548;9.926;2022-11-30T13:23:20;5.70;99.90
17954;DHT22;9102;53.548;9.926;2022-11-30T13:25:56;5.70;99.90
17954;DHT22;9102;53.548;9.926;2022-11-30T13:28:33;5.80;99.90
17954;DHT22;9102;53.548;9.926;2022-11-30T13:31:09;5.70;99.90
17954;DHT22;9102;53.548;9.926;2022-11-30T13:33:47;5.70;99.90
17954;DHT22;9102;53.548;9.926;2022-11-30T13:36:32;5.80;99.90
17954;DHT22;9102;53.548;9.926;2022-11-30T13:39:20;5.80;99.90
17954;DHT22;9102;53.548;9.926;2022-11-30T13:42:19;5.70;99.90
17954;DHT22;9102;53.548;9.926;2022-11-30T13:44:51;5.80;99.90
17954;DHT22;9102;53.548;9.926;2022-11-30T13:47:25;5.70;99.90
17954;DHT22;9102;53.548;9.926;2022-11-30T13:50:03;5.80;99.90
17954;DHT22;9102;53.548;9.926;2022-11-30T13:53:04;5.90;99.90
17954;DHT22;9102;53.548;9.926;2022-11-30T13:55:58;5.80;99.90
17954;DHT22;9102;53.548;9.926;2022-11-30T13:58:26;5.80;99.90
17954;DHT22;9102;53.548;9.926;2022-11-30T14:01:27;5.90;99.90
17954;DHT22;9102;53.548;9.926;2022-11-30T14:07:34;5.90;99.90
17954;DHT22;9102;53.548;9.926;2022-11-30T14:10:27;5.90;99.90
17954;DHT22;9102;53.548;9.926;2022-11-30T14:13:22;5.90;99.90
17954;DHT22;9102;53.548;9.926;2022-11-30T14:19:29;5.80;99.90
17954;DHT22;9102;53.548;9.926;2022-11-30T14:22:27;5.80;99.90
17954;DHT22;9102;53.548;9.926;2022-11-30T14:24:55;5.80;99.90
17954;DHT22;9102;53.548;9.926;2022-11-30T14:31:39;5.90;99.90
17954;DHT22;9102;53.548;9.926;2022-11-30T14:33:52;5.80;99.90
17954;DHT22;9102;53.548;9.926;2022-11-30T14:36:36;5.70;99.90
17954;DHT22;9102;53.548;9.926;2022-11-30T14:39:24;5.70;99.90
17954;DHT22;9102;53.548;9.926;2022-11-30T14:42:00;5.70;99.90
17954;DHT22;9102;53.548;9.926;2022-11-30T14:44:33;5.80;99.90
17954;DHT22;9102;53.548;9.926;2022-11-30T14:47:12;5.70;99.90
17954;DHT22;9102;53.548;9.926;2022-11-30T14:49:50;5.70;99.90
17954;DHT22;9102;53.548;9.926;2022-11-30T14:52:46;5.80;99.90
17954;DHT22;9102;53.548;9.926;2022-11-30T14:55:27;5.80;99.90
17954;DHT22;9102;53.548;9.926;2022-11-30T14:58:02;5.70;99.90
17954;DHT22;9102;53.548;9.926;2022-11-30T15:00:44;5.70;99.90
17954;DHT22;9102;53.548;9.926;2022-11-30T15:03:34;5.70;99.90
17954;DHT22;9102;53.548;9.926;2022-11-30T15:09:49;5.80;99.90
17954;DHT22;9102;53.548;9.926;2022-11-30T15:12:49;5.80;99.90
17954;DHT22;9102;53.548;9.926;2022-11-30T15:15:47;5.80;99.90
17954;DHT22;9102;53.548;9.926;2022-11-30T15:18:51;5.80;99.90
17954;DHT22;9102;53.548;9.926;2022-11-30T15:21:59;5.80;99.90
17954;DHT22;9102;53.548;9.926;2022-11-30T15:28:08;5.80;99.90
17954;DHT22;9102;53.548;9.926;2022-11-30T15:30:40;5.70;99.90
17954;DHT22;9102;53.548;9.926;2022-11-30T15:33:15;5.70;99.90
17954;DHT22;9102;53.548;9.926;2022-11-30T15:35:45;5.60;99.90
17954;DHT22;9102;53.548;9.926;2022-11-30T15:38:17;5.60;99.90
17954;DHT22;9102;53.548;9.926;2022-11-30T15:40:45;5.70;99.90
17954;DHT22;9102;53.548;9.926;2022-11-30T15:43:20;5.60;99.90
17954;DHT22;9102;53.548;9.926;2022-11-30T15:45:52;5.70;99.90
17954;DHT22;9102;53.548;9.926;2022-11-30T15:48:28;5.50;99.90
17954;DHT22;9102;53.548;9.926;2022-11-30T15:50:56;5.60;99.90
17954;DHT22;9102;53.548;9.926;2022-11-30T15:53:31;5.60;99.90
17954;DHT22;9102;53.548;9.926;2022-11-30T15:56:00;5.60;99.90
17954;DHT22;9102;53.548;9.926;2022-11-30T15:58:33;5.60;99.90
17954;DHT22;9102;53.548;9.926;2022-11-30T16:01:08;5.60;99.90
17954;DHT22;9102;53.548;9.926;2022-11-30T16:04:00;5.60;99.90
17954;DHT22;9102;53.548;9.926;2022-11-30T16:06:28;5.60;99.90
17954;DHT22;9102;53.548;9.926;2022-11-30T16:08:56;5.60;99.90
17954;DHT22;9102;53.548;9.926;2022-11-30T16:11:23;5.60;99.90
17954;DHT22;9102;53.548;9.926;2022-11-30T16:13:52;5.50;99.90
17954;DHT22;9102;53.548;9.926;2022-11-30T16:16:20;5.60;99.90
17954;DHT22;9102;53.548;9.926;2022-11-30T16:18:48;5.50;99.90
17954;DHT22;9102;53.548;9.926;2022-11-30T16:21:17;5.40;99.90
17954;DHT22;9102;53.548;9.926;2022-11-30T16:23:45;5.40;99.90
17954;DHT22;9102;53.548;9.926;2022-11-30T16:26:14;5.40;99.90
17954;DHT22;9102;53.548;9.926;2022-11-30T16:28:41;5.40;99.90
17954;DHT22;9102;53.548;9.926;2022-11-30T16:31:13;5.50;99.90
17954;DHT22;9102;53.548;9.926;2022-11-30T16:33:41;5.50;99.90
17954;DHT22;9102;53.548;9.926;2022-11-30T16:36:12;5.40;99.90
17954;DHT22;9102;53.548;9.926;2022-11-30T16:38:39;5.50;99.90
17954;DHT22;9102;53.548;9.926;2022-11-30T16:41:13;5.40;99.90
17954;DHT22;9102;53.548;9.926;2022-11-30T16:43:40;5.40;99.90
17954;DHT22;9102;53.548;9.926;2022-11-30T16:46:10;5.40;99.90
17954;DHT22;9102;53.548;9.926;2022-11-30T16:48:37;5.40;99.90
17954;DHT22;9102;53.548;9.926;2022-11-30T16:51:04;5.50;99.90
17954;DHT22;9102;53.548;9.926;2022-11-30T16:53:34;5.50;99.90
17954;DHT22;9102;53.548;9.926;2022-11-30T16:56:01;5.50;99.90
17954;DHT22;9102;53.548;9.926;2022-11-30T16:58:29;5.50;99.90